sensor_id;sensor_type;location;lat;lon;timestamp;P1;durP1;ratioP1;P2;durP2;ratioP2
8663;SDS011;4369;47.842;13.096;2023-03-17T00:01:19;2.43;;;1.20;;
8663;SDS011;4369;47.842;13.096;2023-03-17T00:03:49;1.47;;;1.20;;
8663;SDS011;4369;47.842;13.096;2023-03-17T00:06:17;1.73;;;1.20;;
8663;SDS011;4369;47.842;13.096;2023-03-17T00:08:50;1.43;;;1.10;;
8663;SDS011;4369;47.842;13.096;2023-03-17T00:11:18;1.23;;;1.13;;
8663;SDS011;4369;47.842;13.096;2023-03-17T00:13:45;1.00;;;1.00;;
8663;SDS011;4369;47.842;13.096;2023-03-17T00:16:14;1.10;;;1.00;;
8663;SDS011;4369;47.842;13.096;2023-03-17T00:18:44;2.20;;;1.10;;
8663;SDS011;4369;47.842;13.096;2023-03-17T00:21:12;0.90;;;0.90;;
8663;SDS011;4369;47.842;13.096;2023-03-17T00:23:40;0.90;;;0.90;;
8663;SDS011;4369;47.842;13.096;2023-03-17T00:26:11;1.40;;;1.30;;
8663;SDS011;4369;47.842;13.096;2023-03-17T00:28:39;1.90;;;1.20;;
8663;SDS011;4369;47.842;13.096;2023-03-17T00:31:10;0.93;;;0.93;;
8663;SDS011;4369;47.842;13.096;2023-03-17T00:33:39;1.53;;;1.37;;
8663;SDS011;4369;47.842;13.096;2023-03-17T00:36:08;1.43;;;1.23;;
8663;SDS011;4369;47.842;13.096;2023-03-17T00:38:39;1.07;;;1.07;;
8663;SDS011;4369;47.842;13.096;2023-03-17T00:41:06;1.13;;;1.13;;
8663;SDS011;4369;47.842;13.096;2023-03-17T00:43:34;1.00;;;1.00;;
8663;SDS011;4369;47.842;13.096;2023-03-17T00:46:04;1.60;;;1.20;;
8663;SDS011;4369;47.842;13.096;2023-03-17T00:48:37;2.27;;;2.07;;
8663;SDS011;4369;47.842;13.096;2023-03-17T00:51:04;1.97;;;1.73;;
8663;SDS011;4369;47.842;13.096;2023-03-17T00:53:31;1.57;;;1.47;;
8663;SDS011;4369;47.842;13.096;2023-03-17T00:55:58;1.47;;;1.37;;
8663;SDS011;4369;47.842;13.096;2023-03-17T00:58:26;3.10;;;1.73;;
8663;SDS011;4369;47.842;13.096;2023-03-17T01:00:54;2.50;;;2.30;;
8663;SDS011;4369;47.842;13.096;2023-03-17T01:03:23;2.03;;;1.87;;
8663;SDS011;4369;47.842;13.096;2023-03-17T01:05:50;2.50;;;2.30;;
8663;SDS011;4369;47.842;13.096;2023-03-17T01:08:18;2.23;;;1.83;;
8663;SDS011;4369;47.842;13.096;2023-03-17T01:10:46;1.37;;;1.27;;
8663;SDS011;4369;47.842;13.096;2023-03-17T01:13:13;2.03;;;1.80;;
8663;SDS011;4369;47.842;13.096;2023-03-17T01:15:41;1.60;;;1.50;;
8663;SDS011;4369;47.842;13.096;2023-03-17T01:18:10;2.73;;;1.80;;
8663;SDS011;4369;47.842;13.096;2023-03-17T01:20:40;3.97;;;1.83;;
8663;SDS011;4369;47.842;13.096;2023-03-17T01:23:07;2.40;;;1.97;;
8663;SDS011;4369;47.842;13.096;2023-03-17T01:25:35;3.93;;;2.97;;
8663;SDS011;4369;47.842;13.096;2023-03-17T01:28:02;3.80;;;2.60;;
8663;SDS011;4369;47.842;13.096;2023-03-17T01:30:32;2.90;;;1.87;;
8663;SDS011;4369;47.842;13.096;2023-03-17T01:33:01;1.30;;;1.20;;
8663;SDS011;4369;47.842;13.096;2023-03-17T01:35:29;1.00;;;1.00;;
8663;SDS011;4369;47.842;13.096;2023-03-17T01:37:57;1.10;;;0.90;;
8663;SDS011;4369;47.842;13.096;2023-03-17T01:40:25;1.63;;;1.17;;
8663;SDS011;4369;47.842;13.096;2023-03-17T01:42:58;1.60;;;1.50;;
8663;SDS011;4369;47.842;13.096;2023-03-17T01:48:34;2.40;;;2.20;;
8663;SDS011;4369;47.842;13.096;2023-03-17T01:51:04;3.67;;;2.37;;
8663;SDS011;4369;47.842;13.096;2023-03-17T01:53:35;3.33;;;2.27;;
8663;SDS011;4369;47.842;13.096;2023-03-17T01:56:04;3.03;;;2.07;;
8663;SDS011;4369;47.842;13.096;2023-03-17T01:58:32;2.03;;;1.60;;
8663;SDS011;4369;47.842;13.096;2023-03-17T02:00:59;2.83;;;1.70;;
8663;SDS011;4369;47.842;13.096;2023-03-17T02:03:27;4.87;;;2.07;;
8663;SDS011;4369;47.842;13.096;2023-03-17T02:05:54;3.53;;;2.30;;
8663;SDS011;4369;47.842;13.096;2023-03-17T02:08:23;3.40;;;2.40;;
8663;SDS011;4369;47.842;13.096;2023-03-17T02:10:51;2.63;;;2.43;;
8663;SDS011;4369;47.842;13.096;2023-03-17T02:13:21;1.90;;;1.80;;
8663;SDS011;4369;47.842;13.096;2023-03-17T02:15:49;2.53;;;1.70;;
8663;SDS011;4369;47.842;13.096;2023-03-17T02:18:18;2.53;;;2.33;;
8663;SDS011;4369;47.842;13.096;2023-03-17T02:21:23;5.07;;;3.13;;
8663;SDS011;4369;47.842;13.096;2023-03-17T02:24:07;5.00;;;3.13;;
8663;SDS011;4369;47.842;13.096;2023-03-17T02:26:37;3.93;;;3.37;;
8663;SDS011;4369;47.842;13.096;2023-03-17T02:29:04;3.40;;;3.10;;
8663;SDS011;4369;47.842;13.096;2023-03-17T02:31:32;3.07;;;2.73;;
8663;SDS011;4369;47.842;13.096;2023-03-17T02:33:59;2.80;;;2.60;;
8663;SDS011;4369;47.842;13.096;2023-03-17T02:36:28;3.67;;;2.53;;
8663;SDS011;4369;47.842;13.096;2023-03-17T02:38:55;2.13;;;2.00;;
8663;SDS011;4369;47.842;13.096;2023-03-17T02:41:22;2.60;;;2.40;;
8663;SDS011;4369;47.842;13.096;2023-03-17T02:43:49;2.63;;;2.40;;
8663;SDS011;4369;47.842;13.096;2023-03-17T02:46:17;4.00;;;3.10;;
8663;SDS011;4369;47.842;13.096;2023-03-17T02:48:44;3.43;;;2.97;;
8663;SDS011;4369;47.842;13.096;2023-03-17T02:51:11;6.03;;;3.47;;
8663;SDS011;4369;47.842;13.096;2023-03-17T02:53:40;6.47;;;3.77;;
8663;SDS011;4369;47.842;13.096;2023-03-17T02:56:07;4.97;;;4.10;;
8663;SDS011;4369;47.842;13.096;2023-03-17T02:58:34;5.43;;;3.43;;
8663;SDS011;4369;47.842;13.096;2023-03-17T03:01:01;4.23;;;2.77;;
8663;SDS011;4369;47.842;13.096;2023-03-17T03:03:28;3.83;;;2.40;;
8663;SDS011;4369;47.842;13.096;2023-03-17T03:05:55;2.70;;;2.50;;
8663;SDS011;4369;47.842;13.096;2023-03-17T03:08:23;3.77;;;2.70;;
8663;SDS011;4369;47.842;13.096;2023-03-17T03:10:52;3.00;;;2.70;;
8663;SDS011;4369;47.842;13.096;2023-03-17T03:13:20;3.57;;;3.20;;
8663;SDS011;4369;47.842;13.096;2023-03-17T03:15:47;3.00;;;2.70;;
8663;SDS011;4369;47.842;13.096;2023-03-17T03:18:14;3.73;;;2.97;;
8663;SDS011;4369;47.842;13.096;2023-03-17T03:20:41;2.50;;;2.30;;
8663;SDS011;4369;47.842;13.096;2023-03-17T03:23:08;3.27;;;2.73;;
8663;SDS011;4369;47.842;13.096;2023-03-17T03:25:36;3.33;;;3.00;;
8663;SDS011;4369;47.842;13.096;2023-03-17T03:28:05;3.67;;;3.20;;
8663;SDS011;4369;47.842;13.096;2023-03-17T03:30:33;5.60;;;3.70;;
8663;SDS011;4369;47.842;13.096;2023-03-17T03:33:01;3.87;;;3.50;;
8663;SDS011;4369;47.842;13.096;2023-03-17T03:35:28;3.93;;;3.47;;
8663;SDS011;4369;47.842;13.096;2023-03-17T03:37:55;3.27;;;2.80;;
8663;SDS011;4369;47.842;13.096;2023-03-17T03:40:23;2.47;;;2.20;;
8663;SDS011;4369;47.842;13.096;2023-03-17T03:42:51;2.53;;;2.33;;
8663;SDS011;4369;47.842;13.096;2023-03-17T03:45:19;4.23;;;2.80;;
8663;SDS011;4369;47.842;13.096;2023-03-17T03:47:46;3.40;;;3.03;;
8663;SDS011;4369;47.842;13.096;2023-03-17T03:50:13;3.67;;;3.10;;
8663;SDS011;4369;47.842;13.096;2023-03-17T03:52:40;5.07;;;3.37;;
8663;SDS011;4369;47.842;13.096;2023-03-17T03:55:08;3.17;;;2.93;;
8663;SDS011;4369;47.842;13.096;2023-03-17T03:57:35;6.13;;;3.93;;
8663;SDS011;4369;47.842;13.096;2023-03-17T04:00:04;5.37;;;4.03;;
8663;SDS011;4369;47.842;13.096;2023-03-17T04:02:34;6.00;;;4.37;;
8663;SDS011;4369;47.842;13.096;2023-03-17T04:05:01;5.80;;;4.97;;
8663;SDS011;4369;47.842;13.096;2023-03-17T04:07:29;8.73;;;4.97;;
8663;SDS011;4369;47.842;13.096;2023-03-17T04:09:56;7.00;;;4.70;;
8663;SDS011;4369;47.842;13.096;2023-03-17T04:12:23;5.70;;;4.30;;
8663;SDS011;4369;47.842;13.096;2023-03-17T04:14:50;5.77;;;3.87;;
8663;SDS011;4369;47.842;13.096;2023-03-17T04:17:17;4.30;;;3.50;;
8663;SDS011;4369;47.842;13.096;2023-03-17T04:19:46;3.80;;;2.90;;
8663;SDS011;4369;47.842;13.096;2023-03-17T04:22:13;3.30;;;2.93;;
8663;SDS011;4369;47.842;13.096;2023-03-17T04:24:40;3.00;;;2.67;;
8663;SDS011;4369;47.842;13.096;2023-03-17T04:27:07;2.13;;;1.77;;
8663;SDS011;4369;47.842;13.096;2023-03-17T04:29:35;1.90;;;1.70;;
8663;SDS011;4369;47.842;13.096;2023-03-17T04:32:02;1.93;;;1.67;;
8663;SDS011;4369;47.842;13.096;2023-03-17T04:34:29;2.10;;;2.00;;
8663;SDS011;4369;47.842;13.096;2023-03-17T04:36:58;3.20;;;1.93;;
8663;SDS011;4369;47.842;13.096;2023-03-17T04:39:25;3.20;;;2.60;;
8663;SDS011;4369;47.842;13.096;2023-03-17T04:41:52;3.77;;;2.67;;
8663;SDS011;4369;47.842;13.096;2023-03-17T04:44:19;3.17;;;2.93;;
8663;SDS011;4369;47.842;13.096;2023-03-17T04:46:46;5.33;;;3.70;;
8663;SDS011;4369;47.842;13.096;2023-03-17T04:49:13;4.67;;;3.57;;
8663;SDS011;4369;47.842;13.096;2023-03-17T04:51:40;4.90;;;3.80;;
8663;SDS011;4369;47.842;13.096;2023-03-17T04:54:08;4.70;;;4.30;;
8663;SDS011;4369;47.842;13.096;2023-03-17T04:56:35;6.40;;;4.33;;
8663;SDS011;4369;47.842;13.096;2023-03-17T04:59:02;7.27;;;4.90;;
8663;SDS011;4369;47.842;13.096;2023-03-17T05:01:29;5.70;;;4.80;;
8663;SDS011;4369;47.842;13.096;2023-03-17T05:03:56;6.33;;;4.63;;
8663;SDS011;4369;47.842;13.096;2023-03-17T05:06:23;5.33;;;4.80;;
8663;SDS011;4369;47.842;13.096;2023-03-17T05:08:50;4.93;;;4.17;;
8663;SDS011;4369;47.842;13.096;2023-03-17T05:11:18;5.43;;;3.97;;
8663;SDS011;4369;47.842;13.096;2023-03-17T05:13:45;3.13;;;2.83;;
8663;SDS011;4369;47.842;13.096;2023-03-17T05:16:12;3.73;;;3.27;;
8663;SDS011;4369;47.842;13.096;2023-03-17T05:18:39;3.27;;;2.73;;
8663;SDS011;4369;47.842;13.096;2023-03-17T05:21:07;1.87;;;1.50;;
8663;SDS011;4369;47.842;13.096;2023-03-17T05:23:35;2.53;;;1.70;;
8663;SDS011;4369;47.842;13.096;2023-03-17T05:26:02;2.57;;;2.17;;
8663;SDS011;4369;47.842;13.096;2023-03-17T05:28:30;3.93;;;3.63;;
8663;SDS011;4369;47.842;13.096;2023-03-17T05:30:57;3.97;;;3.53;;
8663;SDS011;4369;47.842;13.096;2023-03-17T05:33:24;7.10;;;4.03;;
8663;SDS011;4369;47.842;13.096;2023-03-17T05:35:51;4.72;;;4.22;;
8663;SDS011;4369;47.842;13.096;2023-03-17T05:38:18;4.37;;;3.67;;
8663;SDS011;4369;47.842;13.096;2023-03-17T05:40:47;3.83;;;3.23;;
8663;SDS011;4369;47.842;13.096;2023-03-17T05:43:14;2.70;;;2.50;;
8663;SDS011;4369;47.842;13.096;2023-03-17T05:45:43;2.50;;;2.30;;
8663;SDS011;4369;47.842;13.096;2023-03-17T05:48:11;3.93;;;1.83;;
8663;SDS011;4369;47.842;13.096;2023-03-17T05:50:38;2.20;;;2.00;;
8663;SDS011;4369;47.842;13.096;2023-03-17T05:53:05;2.13;;;2.03;;
8663;SDS011;4369;47.842;13.096;2023-03-17T05:55:32;2.63;;;2.10;;
8663;SDS011;4369;47.842;13.096;2023-03-17T05:57:59;4.00;;;2.20;;
8663;SDS011;4369;47.842;13.096;2023-03-17T06:00:28;4.33;;;1.80;;
8663;SDS011;4369;47.842;13.096;2023-03-17T06:02:56;4.37;;;2.00;;
8663;SDS011;4369;47.842;13.096;2023-03-17T06:05:23;2.30;;;2.03;;
8663;SDS011;4369;47.842;13.096;2023-03-17T06:07:51;6.90;;;2.73;;
8663;SDS011;4369;47.842;13.096;2023-03-17T06:10:18;3.87;;;1.80;;
8663;SDS011;4369;47.842;13.096;2023-03-17T06:12:45;5.10;;;2.23;;
8663;SDS011;4369;47.842;13.096;2023-03-17T06:15:13;4.53;;;2.10;;
8663;SDS011;4369;47.842;13.096;2023-03-17T06:17:41;4.70;;;2.30;;
8663;SDS011;4369;47.842;13.096;2023-03-17T06:20:09;3.43;;;2.37;;
8663;SDS011;4369;47.842;13.096;2023-03-17T06:22:37;5.87;;;2.77;;
8663;SDS011;4369;47.842;13.096;2023-03-17T06:25:05;3.77;;;2.70;;
8663;SDS011;4369;47.842;13.096;2023-03-17T06:27:34;5.77;;;2.93;;
8663;SDS011;4369;47.842;13.096;2023-03-17T06:30:01;4.50;;;2.50;;
8663;SDS011;4369;47.842;13.096;2023-03-17T06:32:28;4.40;;;2.53;;
8663;SDS011;4369;47.842;13.096;2023-03-17T06:34:55;7.83;;;3.00;;
8663;SDS011;4369;47.842;13.096;2023-03-17T06:37:24;5.23;;;4.00;;
8663;SDS011;4369;47.842;13.096;2023-03-17T06:39:51;6.73;;;4.43;;
8663;SDS011;4369;47.842;13.096;2023-03-17T06:42:17;6.87;;;4.57;;
8663;SDS011;4369;47.842;13.096;2023-03-17T06:44:45;6.17;;;4.03;;
8663;SDS011;4369;47.842;13.096;2023-03-17T06:47:12;6.03;;;4.50;;
8663;SDS011;4369;47.842;13.096;2023-03-17T06:49:38;6.33;;;4.27;;
8663;SDS011;4369;47.842;13.096;2023-03-17T06:52:05;6.13;;;4.20;;
8663;SDS011;4369;47.842;13.096;2023-03-17T06:54:34;5.67;;;4.57;;
8663;SDS011;4369;47.842;13.096;2023-03-17T06:57:03;8.87;;;4.53;;
8663;SDS011;4369;47.842;13.096;2023-03-17T06:59:30;8.27;;;4.50;;
8663;SDS011;4369;47.842;13.096;2023-03-17T07:01:57;6.07;;;4.23;;
8663;SDS011;4369;47.842;13.096;2023-03-17T07:04:24;7.67;;;4.40;;
8663;SDS011;4369;47.842;13.096;2023-03-17T07:06:51;9.83;;;4.60;;
8663;SDS011;4369;47.842;13.096;2023-03-17T07:09:18;7.67;;;4.67;;
8663;SDS011;4369;47.842;13.096;2023-03-17T07:11:47;5.53;;;3.90;;
8663;SDS011;4369;47.842;13.096;2023-03-17T07:14:14;7.47;;;4.10;;
8663;SDS011;4369;47.842;13.096;2023-03-17T07:16:42;5.00;;;3.97;;
8663;SDS011;4369;47.842;13.096;2023-03-17T07:19:09;6.83;;;4.20;;
8663;SDS011;4369;47.842;13.096;2023-03-17T07:21:37;4.00;;;3.50;;
8663;SDS011;4369;47.842;13.096;2023-03-17T07:24:04;6.07;;;3.90;;
8663;SDS011;4369;47.842;13.096;2023-03-17T07:26:31;6.63;;;4.00;;
8663;SDS011;4369;47.842;13.096;2023-03-17T07:28:59;5.03;;;3.63;;
8663;SDS011;4369;47.842;13.096;2023-03-17T07:31:26;4.60;;;3.60;;
8663;SDS011;4369;47.842;13.096;2023-03-17T07:33:53;6.47;;;4.20;;
8663;SDS011;4369;47.842;13.096;2023-03-17T07:36:21;8.13;;;3.60;;
8663;SDS011;4369;47.842;13.096;2023-03-17T07:38:49;4.43;;;3.47;;
8663;SDS011;4369;47.842;13.096;2023-03-17T07:41:15;6.40;;;2.80;;
8663;SDS011;4369;47.842;13.096;2023-03-17T07:43:42;8.23;;;3.60;;
8663;SDS011;4369;47.842;13.096;2023-03-17T07:46:10;7.33;;;3.10;;
8663;SDS011;4369;47.842;13.096;2023-03-17T07:48:37;8.80;;;3.17;;
8663;SDS011;4369;47.842;13.096;2023-03-17T07:51:08;7.50;;;3.30;;
8663;SDS011;4369;47.842;13.096;2023-03-17T07:53:38;4.40;;;2.77;;
8663;SDS011;4369;47.842;13.096;2023-03-17T07:56:06;4.70;;;2.80;;
8663;SDS011;4369;47.842;13.096;2023-03-17T07:58:33;5.00;;;2.50;;
8663;SDS011;4369;47.842;13.096;2023-03-17T08:01:00;3.80;;;2.10;;
8663;SDS011;4369;47.842;13.096;2023-03-17T08:03:30;2.67;;;1.60;;
8663;SDS011;4369;47.842;13.096;2023-03-17T08:05:57;4.50;;;2.00;;
8663;SDS011;4369;47.842;13.096;2023-03-17T08:08:24;4.30;;;2.40;;
8663;SDS011;4369;47.842;13.096;2023-03-17T08:10:56;3.20;;;1.90;;
8663;SDS011;4369;47.842;13.096;2023-03-17T08:13:27;3.63;;;2.07;;
8663;SDS011;4369;47.842;13.096;2023-03-17T08:15:55;2.90;;;2.00;;
8663;SDS011;4369;47.842;13.096;2023-03-17T08:18:22;3.37;;;1.40;;
8663;SDS011;4369;47.842;13.096;2023-03-17T08:20:55;1.50;;;1.40;;
8663;SDS011;4369;47.842;13.096;2023-03-17T08:23:24;0.97;;;0.93;;
8663;SDS011;4369;47.842;13.096;2023-03-17T08:25:54;2.70;;;1.03;;
8663;SDS011;4369;47.842;13.096;2023-03-17T08:28:22;3.37;;;0.90;;
8663;SDS011;4369;47.842;13.096;2023-03-17T08:30:49;2.17;;;1.10;;
8663;SDS011;4369;47.842;13.096;2023-03-17T08:33:15;4.00;;;1.17;;
8663;SDS011;4369;47.842;13.096;2023-03-17T08:35:42;2.33;;;1.00;;
8663;SDS011;4369;47.842;13.096;2023-03-17T08:38:11;0.83;;;0.80;;
8663;SDS011;4369;47.842;13.096;2023-03-17T08:40:38;2.87;;;1.50;;
8663;SDS011;4369;47.842;13.096;2023-03-17T08:43:08;3.40;;;1.60;;
8663;SDS011;4369;47.842;13.096;2023-03-17T08:45:37;1.77;;;1.20;;
8663;SDS011;4369;47.842;13.096;2023-03-17T08:48:04;2.77;;;1.47;;
8663;SDS011;4369;47.842;13.096;2023-03-17T08:50:32;6.50;;;1.60;;
8663;SDS011;4369;47.842;13.096;2023-03-17T08:52:59;1.57;;;1.47;;
8663;SDS011;4369;47.842;13.096;2023-03-17T08:55:28;3.27;;;1.70;;
8663;SDS011;4369;47.842;13.096;2023-03-17T08:57:55;1.77;;;1.40;;
8663;SDS011;4369;47.842;13.096;2023-03-17T09:00:23;2.27;;;1.33;;
8663;SDS011;4369;47.842;13.096;2023-03-17T09:02:50;1.77;;;1.40;;
8663;SDS011;4369;47.842;13.096;2023-03-17T09:05:17;1.10;;;1.00;;
8663;SDS011;4369;47.842;13.096;2023-03-17T09:07:44;2.50;;;1.30;;
8663;SDS011;4369;47.842;13.096;2023-03-17T09:10:13;2.70;;;1.40;;
8663;SDS011;4369;47.842;13.096;2023-03-17T09:12:42;4.10;;;1.60;;
8663;SDS011;4369;47.842;13.096;2023-03-17T09:15:10;2.73;;;1.60;;
8663;SDS011;4369;47.842;13.096;2023-03-17T09:17:37;6.00;;;2.20;;
8663;SDS011;4369;47.842;13.096;2023-03-17T09:20:05;1.40;;;1.30;;
8663;SDS011;4369;47.842;13.096;2023-03-17T09:22:33;2.73;;;1.63;;
8663;SDS011;4369;47.842;13.096;2023-03-17T09:25:00;2.70;;;1.67;;
8663;SDS011;4369;47.842;13.096;2023-03-17T09:27:28;1.60;;;1.50;;
8663;SDS011;4369;47.842;13.096;2023-03-17T09:29:56;6.63;;;1.70;;
8663;SDS011;4369;47.842;13.096;2023-03-17T09:32:23;1.60;;;1.50;;
8663;SDS011;4369;47.842;13.096;2023-03-17T09:34:50;4.53;;;1.90;;
8663;SDS011;4369;47.842;13.096;2023-03-17T09:37:17;2.40;;;1.70;;
8663;SDS011;4369;47.842;13.096;2023-03-17T09:39:44;3.47;;;2.13;;
8663;SDS011;4369;47.842;13.096;2023-03-17T09:42:14;5.40;;;1.73;;
8663;SDS011;4369;47.842;13.096;2023-03-17T09:45:03;2.00;;;1.83;;
8663;SDS011;4369;47.842;13.096;2023-03-17T09:50:47;4.03;;;1.90;;
8663;SDS011;4369;47.842;13.096;2023-03-17T09:53:21;3.50;;;1.97;;
8663;SDS011;4369;47.842;13.096;2023-03-17T09:55:52;3.50;;;1.57;;
8663;SDS011;4369;47.842;13.096;2023-03-17T09:58:25;2.50;;;1.90;;
8663;SDS011;4369;47.842;13.096;2023-03-17T10:00:57;3.33;;;1.80;;
8663;SDS011;4369;47.842;13.096;2023-03-17T10:03:25;3.87;;;2.20;;
8663;SDS011;4369;47.842;13.096;2023-03-17T10:05:53;3.67;;;2.10;;
8663;SDS011;4369;47.842;13.096;2023-03-17T10:08:25;2.97;;;1.80;;
8663;SDS011;4369;47.842;13.096;2023-03-17T10:10:58;1.97;;;1.80;;
8663;SDS011;4369;47.842;13.096;2023-03-17T10:13:37;3.70;;;2.07;;
8663;SDS011;4369;47.842;13.096;2023-03-17T10:16:16;2.30;;;1.77;;
8663;SDS011;4369;47.842;13.096;2023-03-17T10:18:48;3.13;;;1.90;;
8663;SDS011;4369;47.842;13.096;2023-03-17T10:21:19;8.33;;;2.23;;
8663;SDS011;4369;47.842;13.096;2023-03-17T10:23:50;1.60;;;1.50;;
8663;SDS011;4369;47.842;13.096;2023-03-17T10:26:21;4.30;;;2.60;;
8663;SDS011;4369;47.842;13.096;2023-03-17T10:28:53;3.53;;;2.30;;
8663;SDS011;4369;47.842;13.096;2023-03-17T10:31:27;3.50;;;2.60;;
8663;SDS011;4369;47.842;13.096;2023-03-17T10:33:57;3.90;;;2.60;;
8663;SDS011;4369;47.842;13.096;2023-03-17T10:36:38;3.80;;;1.97;;
8663;SDS011;4369;47.842;13.096;2023-03-17T10:39:08;2.30;;;2.10;;
8663;SDS011;4369;47.842;13.096;2023-03-17T10:41:38;3.03;;;2.20;;
8663;SDS011;4369;47.842;13.096;2023-03-17T10:44:08;2.60;;;2.40;;
8663;SDS011;4369;47.842;13.096;2023-03-17T10:46:37;4.37;;;2.43;;
8663;SDS011;4369;47.842;13.096;2023-03-17T10:49:06;3.30;;;2.43;;
8663;SDS011;4369;47.842;13.096;2023-03-17T10:51:35;4.33;;;2.30;;
8663;SDS011;4369;47.842;13.096;2023-03-17T10:54:06;4.13;;;2.00;;
8663;SDS011;4369;47.842;13.096;2023-03-17T10:56:35;2.43;;;2.00;;
8663;SDS011;4369;47.842;13.096;2023-03-17T10:59:04;2.87;;;1.80;;
8663;SDS011;4369;47.842;13.096;2023-03-17T11:01:34;1.90;;;1.80;;
8663;SDS011;4369;47.842;13.096;2023-03-17T11:06:53;1.60;;;1.50;;
8663;SDS011;4369;47.842;13.096;2023-03-17T11:09:21;2.87;;;1.77;;
8663;SDS011;4369;47.842;13.096;2023-03-17T11:11:49;4.67;;;2.07;;
8663;SDS011;4369;47.842;13.096;2023-03-17T11:14:26;4.90;;;1.90;;
8663;SDS011;4369;47.842;13.096;2023-03-17T11:16:54;1.70;;;1.60;;
8663;SDS011;4369;47.842;13.096;2023-03-17T11:19:24;1.93;;;1.70;;
8663;SDS011;4369;47.842;13.096;2023-03-17T11:22:04;2.97;;;2.20;;
8663;SDS011;4369;47.842;13.096;2023-03-17T11:24:37;3.47;;;2.50;;
8663;SDS011;4369;47.842;13.096;2023-03-17T11:27:14;2.50;;;1.90;;
8663;SDS011;4369;47.842;13.096;2023-03-17T11:29:51;2.33;;;2.10;;
8663;SDS011;4369;47.842;13.096;2023-03-17T11:32:30;2.57;;;2.20;;
8663;SDS011;4369;47.842;13.096;2023-03-17T11:35:09;3.97;;;2.20;;
8663;SDS011;4369;47.842;13.096;2023-03-17T11:37:55;3.10;;;2.40;;
8663;SDS011;4369;47.842;13.096;2023-03-17T11:40:34;3.03;;;2.30;;
8663;SDS011;4369;47.842;13.096;2023-03-17T11:43:09;2.47;;;2.23;;
8663;SDS011;4369;47.842;13.096;2023-03-17T11:45:48;2.63;;;2.33;;
8663;SDS011;4369;47.842;13.096;2023-03-17T11:48:23;3.07;;;2.63;;
8663;SDS011;4369;47.842;13.096;2023-03-17T11:51:03;3.00;;;2.60;;
8663;SDS011;4369;47.842;13.096;2023-03-17T11:53:46;3.00;;;2.67;;
8663;SDS011;4369;47.842;13.096;2023-03-17T11:56:22;3.13;;;2.80;;
8663;SDS011;4369;47.842;13.096;2023-03-17T11:58:57;3.00;;;2.80;;
8663;SDS011;4369;47.842;13.096;2023-03-17T12:01:28;4.40;;;2.97;;
8663;SDS011;4369;47.842;13.096;2023-03-17T12:04:02;3.10;;;2.80;;
8663;SDS011;4369;47.842;13.096;2023-03-17T12:06:37;3.13;;;2.83;;
8663;SDS011;4369;47.842;13.096;2023-03-17T12:09:13;3.03;;;2.55;;
8663;SDS011;4369;47.842;13.096;2023-03-17T12:11:46;3.15;;;2.88;;
8663;SDS011;4369;47.842;13.096;2023-03-17T12:14:19;3.20;;;2.88;;
8663;SDS011;4369;47.842;13.096;2023-03-17T12:16:52;3.63;;;3.22;;
8663;SDS011;4369;47.842;13.096;2023-03-17T12:19:29;5.38;;;3.33;;
8663;SDS011;4369;47.842;13.096;2023-03-17T12:22:06;4.22;;;3.10;;
8663;SDS011;4369;47.842;13.096;2023-03-17T12:24:42;3.33;;;3.03;;
8663;SDS011;4369;47.842;13.096;2023-03-17T12:27:18;3.38;;;3.08;;
8663;SDS011;4369;47.842;13.096;2023-03-17T12:29:52;5.38;;;2.95;;
8663;SDS011;4369;47.842;13.096;2023-03-17T12:32:25;4.13;;;3.15;;
8663;SDS011;4369;47.842;13.096;2023-03-17T12:34:59;4.13;;;2.90;;
8663;SDS011;4369;47.842;13.096;2023-03-17T12:37:36;3.08;;;2.78;;
8663;SDS011;4369;47.842;13.096;2023-03-17T12:40:06;3.28;;;2.97;;
8663;SDS011;4369;47.842;13.096;2023-03-17T12:42:40;3.20;;;3.00;;
8663;SDS011;4369;47.842;13.096;2023-03-17T12:45:19;3.08;;;2.78;;
8663;SDS011;4369;47.842;13.096;2023-03-17T12:48:10;3.38;;;2.95;;
8663;SDS011;4369;47.842;13.096;2023-03-17T12:50:48;3.33;;;2.83;;
8663;SDS011;4369;47.842;13.096;2023-03-17T12:53:33;3.45;;;3.15;;
8663;SDS011;4369;47.842;13.096;2023-03-17T12:56:07;3.50;;;3.20;;
8663;SDS011;4369;47.842;13.096;2023-03-17T12:58:38;3.55;;;3.20;;
8663;SDS011;4369;47.842;13.096;2023-03-17T13:01:12;3.50;;;3.20;;
8663;SDS011;4369;47.842;13.096;2023-03-17T13:03:46;3.85;;;2.80;;
8663;SDS011;4369;47.842;13.096;2023-03-17T13:06:23;4.38;;;3.20;;
8663;SDS011;4369;47.842;13.096;2023-03-17T13:08:52;3.15;;;2.95;;
8663;SDS011;4369;47.842;13.096;2023-03-17T13:11:25;2.92;;;2.65;;
8663;SDS011;4369;47.842;13.096;2023-03-17T13:14:05;4.43;;;2.72;;
8663;SDS011;4369;47.842;13.096;2023-03-17T13:16:40;2.80;;;2.60;;
8663;SDS011;4369;47.842;13.096;2023-03-17T13:19:13;3.45;;;2.80;;
8663;SDS011;4369;47.842;13.096;2023-03-17T13:21:43;3.05;;;2.85;;
8663;SDS011;4369;47.842;13.096;2023-03-17T13:27:08;3.40;;;3.10;;
8663;SDS011;4369;47.842;13.096;2023-03-17T13:29:41;3.50;;;3.30;;
8663;SDS011;4369;47.842;13.096;2023-03-17T13:32:29;3.75;;;3.38;;
8663;SDS011;4369;47.842;13.096;2023-03-17T13:41:14;4.55;;;2.03;;
8663;SDS011;4369;47.842;13.096;2023-03-17T13:43:51;2.95;;;2.08;;
8663;SDS011;4369;47.842;13.096;2023-03-17T13:46:29;2.50;;;1.92;;
8663;SDS011;4369;47.842;13.096;2023-03-17T13:49:12;2.40;;;1.95;;
8663;SDS011;4369;47.842;13.096;2023-03-17T13:51:48;2.28;;;1.90;;
8663;SDS011;4369;47.842;13.096;2023-03-17T13:54:18;2.55;;;2.10;;
8663;SDS011;4369;47.842;13.096;2023-03-17T13:56:55;3.63;;;2.53;;
8663;SDS011;4369;47.842;13.096;2023-03-17T13:59:30;3.25;;;2.45;;
8663;SDS011;4369;47.842;13.096;2023-03-17T14:02:02;2.25;;;2.00;;
8663;SDS011;4369;47.842;13.096;2023-03-17T14:04:44;2.35;;;2.15;;
8663;SDS011;4369;47.842;13.096;2023-03-17T14:07:17;2.30;;;2.10;;
8663;SDS011;4369;47.842;13.096;2023-03-17T14:09:46;6.22;;;2.10;;
8663;SDS011;4369;47.842;13.096;2023-03-17T14:12:27;3.80;;;2.08;;
8663;SDS011;4369;47.842;13.096;2023-03-17T14:14:59;2.58;;;2.10;;
8663;SDS011;4369;47.842;13.096;2023-03-17T14:17:31;3.88;;;2.38;;
8663;SDS011;4369;47.842;13.096;2023-03-17T14:20:05;3.10;;;2.45;;
8663;SDS011;4369;47.842;13.096;2023-03-17T14:22:45;3.70;;;2.42;;
8663;SDS011;4369;47.842;13.096;2023-03-17T14:25:14;3.10;;;2.80;;
8663;SDS011;4369;47.842;13.096;2023-03-17T14:27:44;5.05;;;2.92;;
8663;SDS011;4369;47.842;13.096;2023-03-17T14:30:17;3.55;;;3.25;;
8663;SDS011;4369;47.842;13.096;2023-03-17T14:32:47;4.88;;;3.00;;
8663;SDS011;4369;47.842;13.096;2023-03-17T14:35:17;3.20;;;2.90;;
8663;SDS011;4369;47.842;13.096;2023-03-17T14:37:45;3.75;;;3.10;;
8663;SDS011;4369;47.842;13.096;2023-03-17T14:40:19;5.32;;;3.33;;
8663;SDS011;4369;47.842;13.096;2023-03-17T14:42:48;4.85;;;3.30;;
8663;SDS011;4369;47.842;13.096;2023-03-17T14:45:18;3.95;;;3.25;;
8663;SDS011;4369;47.842;13.096;2023-03-17T14:47:47;5.85;;;3.67;;
8663;SDS011;4369;47.842;13.096;2023-03-17T14:50:27;5.00;;;3.53;;
8663;SDS011;4369;47.842;13.096;2023-03-17T14:52:56;4.03;;;3.63;;
8663;SDS011;4369;47.842;13.096;2023-03-17T14:55:27;3.70;;;3.33;;
8663;SDS011;4369;47.842;13.096;2023-03-17T14:58:06;5.57;;;4.00;;
8663;SDS011;4369;47.842;13.096;2023-03-17T15:00:34;4.43;;;3.60;;
8663;SDS011;4369;47.842;13.096;2023-03-17T15:03:03;7.27;;;3.83;;
8663;SDS011;4369;47.842;13.096;2023-03-17T15:05:42;4.33;;;3.20;;
8663;SDS011;4369;47.842;13.096;2023-03-17T15:11:14;4.20;;;3.27;;
8663;SDS011;4369;47.842;13.096;2023-03-17T15:13:45;5.53;;;3.60;;
8663;SDS011;4369;47.842;13.096;2023-03-17T15:16:15;4.43;;;3.20;;
8663;SDS011;4369;47.842;13.096;2023-03-17T15:18:45;5.30;;;3.23;;
8663;SDS011;4369;47.842;13.096;2023-03-17T15:21:20;5.03;;;3.50;;
8663;SDS011;4369;47.842;13.096;2023-03-17T15:23:48;4.73;;;3.47;;
8663;SDS011;4369;47.842;13.096;2023-03-17T15:26:19;3.63;;;3.33;;
8663;SDS011;4369;47.842;13.096;2023-03-17T15:28:49;4.43;;;2.90;;
8663;SDS011;4369;47.842;13.096;2023-03-17T15:31:16;6.70;;;3.93;;
8663;SDS011;4369;47.842;13.096;2023-03-17T15:33:47;5.70;;;3.23;;
8663;SDS011;4369;47.842;13.096;2023-03-17T15:36:15;3.43;;;3.13;;
8663;SDS011;4369;47.842;13.096;2023-03-17T15:38:42;4.97;;;3.00;;